Socorro, New Mexico
Current Conditions -  °F | °C
As of 5:15 PM on Wednesday 28 Jan 2015 (Local Time) from KONM Reporting Station
NA  
Wind Chill: 62°   Ceiling: NA
Heat Index: 62°   Visibility: 10mi
Dew Point: 33°   Wind: 5mph
Humidity: 34%   Direction: 200°SSW
Pressure: 30.14"   Gusts: NA
Location:  34.06°N, 106.89°W
Report Text: KONM 290015Z AUTO 20004KT 10SM 17/01 A3014 RMK AO2 T01690007
Loading
Personal Weather Stations






























Interactive Weather Map New forecast layout! Learn more

10-Day Weather Forecast

Advertisements
Track Severe Weather on mobile